CES8185 PGUM-ZSPD
Flight info
| Callsign | CES8185 |
|---|---|
| Flight time | N/A |
| Altitude | 36000 |
| Route | UNZ G339 CANAI/N0461F380 G339 AGIKA Z41 POTET A593 LAMEN/K0861F380 A593 AKARA/K0865S1160 A593 DUMET DUM81A |
| Aircraft | A20N/M-SDE2E3FGHIRWXY/LB1 |
Departure
| Time | N/A |
|---|---|
| Airport | Antonio B. Won Pat International Airport (PGUM) |
Arrival
| Time | 2026-05-05 09:46 |
|---|---|
| Airport | Shanghai Pudong International Airport (ZSPD) |
| Time | Latitude | Longitude | Altitude | Speed | Heading |
|---|---|---|---|---|---|
| 2026-05-05 09:34 | 31.30072 | 121.82454 | 2996 ft | 213 kts | 72° |
| 2026-05-05 09:34 | 31.30731 | 121.83986 | 2971 ft | 216 kts | 52° |
| 2026-05-05 09:35 | 31.31991 | 121.84946 | 2986 ft | 221 kts | 16° |
| 2026-05-05 09:35 | 31.35018 | 121.84536 | 3006 ft | 219 kts | 340° |
| 2026-05-05 09:35 | 31.36398 | 121.83927 | 2889 ft | 208 kts | 338° |
| 2026-05-05 09:36 | 31.37756 | 121.83305 | 2584 ft | 207 kts | 338° |
| 2026-05-05 09:36 | 31.39109 | 121.82684 | 2756 ft | 211 kts | 338° |
| 2026-05-05 09:36 | 31.40468 | 121.82050 | 2848 ft | 212 kts | 337° |
| 2026-05-05 09:36 | 31.41834 | 121.81393 | 2877 ft | 211 kts | 336° |
| 2026-05-05 09:37 | 31.43209 | 121.80720 | 2887 ft | 211 kts | 332° |
| 2026-05-05 09:37 | 31.44283 | 121.79630 | 2875 ft | 207 kts | 298° |
| 2026-05-05 09:37 | 31.44598 | 121.78045 | 2888 ft | 200 kts | 262° |
| 2026-05-05 09:37 | 31.44343 | 121.76443 | 2901 ft | 199 kts | 253° |
| 2026-05-05 09:38 | 31.43997 | 121.74877 | 2888 ft | 195 kts | 252° |
| 2026-05-05 09:38 | 31.43660 | 121.73387 | 2880 ft | 189 kts | 251° |
| 2026-05-05 09:38 | 31.43221 | 121.71940 | 2884 ft | 187 kts | 242° |
| 2026-05-05 09:38 | 31.42602 | 121.70618 | 2877 ft | 184 kts | 228° |
| 2026-05-05 09:39 | 31.41554 | 121.69859 | 2875 ft | 179 kts | 192° |
| 2026-05-05 09:39 | 31.40336 | 121.69759 | 2873 ft | 165 kts | 175° |
| 2026-05-05 09:39 | 31.39234 | 121.69962 | 2871 ft | 159 kts | 167° |
| 2026-05-05 09:39 | 31.38149 | 121.70307 | 2880 ft | 158 kts | 164° |
| 2026-05-05 09:40 | 31.37092 | 121.70692 | 2911 ft | 159 kts | 163° |
| 2026-05-05 09:40 | 31.36038 | 121.71088 | 2895 ft | 159 kts | 163° |
| 2026-05-05 09:40 | 31.34981 | 121.71486 | 2882 ft | 157 kts | 163° |
| 2026-05-05 09:40 | 31.33938 | 121.71880 | 2888 ft | 157 kts | 162° |
| 2026-05-05 09:41 | 31.32904 | 121.72269 | 2880 ft | 156 kts | 162° |
| 2026-05-05 09:41 | 31.31871 | 121.72659 | 2859 ft | 149 kts | 162° |
| 2026-05-05 09:41 | 31.30912 | 121.73022 | 2858 ft | 141 kts | 162° |
| 2026-05-05 09:41 | 31.29979 | 121.73373 | 2766 ft | 140 kts | 162° |
| 2026-05-05 09:42 | 31.29049 | 121.73724 | 2596 ft | 140 kts | 163° |
| 2026-05-05 09:42 | 31.28127 | 121.74072 | 2417 ft | 139 kts | 163° |
| 2026-05-05 09:42 | 31.27211 | 121.74418 | 2240 ft | 139 kts | 163° |
| 2026-05-05 09:42 | 31.26289 | 121.74766 | 2054 ft | 138 kts | 163° |
| 2026-05-05 09:43 | 31.25366 | 121.75114 | 1867 ft | 138 kts | 163° |
| 2026-05-05 09:43 | 31.24462 | 121.75455 | 1677 ft | 138 kts | 163° |
| 2026-05-05 09:43 | 31.23538 | 121.75803 | 1496 ft | 138 kts | 163° |
| 2026-05-05 09:43 | 31.22628 | 121.76146 | 1318 ft | 137 kts | 162° |
| 2026-05-05 09:44 | 31.21722 | 121.76489 | 1145 ft | 137 kts | 162° |
| 2026-05-05 09:44 | 31.20812 | 121.76832 | 963 ft | 136 kts | 162° |
| 2026-05-05 09:44 | 31.19904 | 121.77174 | 788 ft | 136 kts | 162° |
| 2026-05-05 09:44 | 31.19001 | 121.77515 | 615 ft | 136 kts | 162° |
| 2026-05-05 09:45 | 31.18106 | 121.77851 | 440 ft | 135 kts | 162° |
| 2026-05-05 09:45 | 31.17214 | 121.78184 | 283 ft | 134 kts | 162° |
| 2026-05-05 09:45 | 31.16329 | 121.78521 | 103 ft | 130 kts | 161° |
| 2026-05-05 09:45 | 31.15486 | 121.78851 | 22 ft | 119 kts | 164° |
| 2026-05-05 09:46 | 31.14856 | 121.79079 | 21 ft | 71 kts | 162° |
| 2026-05-05 09:46 | 31.14548 | 121.79214 | 21 ft | 32 kts | 148° |
| 2026-05-05 09:46 | 31.14424 | 121.79338 | 21 ft | 6 kts | 132° |
| 2026-05-05 09:46 | 31.14422 | 121.79340 | 21 ft | 0 kts | 132° |
| 2026-05-05 09:47 | 31.14420 | 121.79344 | 21 ft | 1 kts | 132° |
| 2026-05-05 09:47 | 31.14403 | 121.79365 | 21 ft | 5 kts | 133° |
| 2026-05-05 09:47 | 31.14357 | 121.79426 | 21 ft | 13 kts | 130° |
| 2026-05-05 09:47 | 31.14268 | 121.79516 | 21 ft | 19 kts | 153° |
| 2026-05-05 09:48 | 31.14136 | 121.79571 | 21 ft | 20 kts | 162° |
| 2026-05-05 09:48 | 31.14036 | 121.79627 | 21 ft | 13 kts | 115° |
| 2026-05-05 09:48 | 31.14043 | 121.79743 | 21 ft | 15 kts | 81° |
| 2026-05-05 09:48 | 31.14077 | 121.79872 | 21 ft | 12 kts | 72° |
| 2026-05-05 09:49 | 31.14034 | 121.79948 | 21 ft | 14 kts | 161° |
| 2026-05-05 09:49 | 31.13934 | 121.79984 | 21 ft | 16 kts | 162° |
| 2026-05-05 09:49 | 31.13821 | 121.80027 | 21 ft | 17 kts | 162° |
| 2026-05-05 09:49 | 31.13699 | 121.80073 | 21 ft | 19 kts | 162° |
| 2026-05-05 09:50 | 31.13598 | 121.80111 | 21 ft | 4 kts | 162° |
| 2026-05-05 09:50 | 31.13580 | 121.80148 | 21 ft | 7 kts | 91° |
| 2026-05-05 09:50 | 31.13595 | 121.80209 | 21 ft | 5 kts | 71° |
| 2026-05-05 09:50 | 31.13600 | 121.80228 | 21 ft | 0 kts | 72° |
| 2026-05-05 09:51 | 31.13601 | 121.80231 | 21 ft | 0 kts | 72° |